sensor_id;sensor_type;location;lat;lon;timestamp;pressure;altitude;pressure_sealevel;temperature
53412;BMP280;39307;52.870;13.660;2023-02-01T00:00:24;100414.47;;;3.80
53412;BMP280;39307;52.870;13.660;2023-02-01T00:02:50;100414.00;;;3.84
53412;BMP280;39307;52.870;13.660;2023-02-01T00:05:17;100412.97;;;3.77
53412;BMP280;39307;52.870;13.660;2023-02-01T00:07:44;100418.97;;;3.78
53412;BMP280;39307;52.870;13.660;2023-02-01T00:10:13;100417.28;;;3.86
53412;BMP280;39307;52.870;13.660;2023-02-01T00:12:39;100426.00;;;4.02
53412;BMP280;39307;52.870;13.660;2023-02-01T00:15:05;100410.69;;;3.92
53412;BMP280;39307;52.870;13.660;2023-02-01T00:17:32;100403.22;;;3.89
53412;BMP280;39307;52.870;13.660;2023-02-01T00:19:58;100399.72;;;3.80
53412;BMP280;39307;52.870;13.660;2023-02-01T00:22:24;100401.72;;;3.69
53412;BMP280;39307;52.870;13.660;2023-02-01T00:24:50;100409.13;;;3.81
53412;BMP280;39307;52.870;13.660;2023-02-01T00:27:17;100411.00;;;3.89
53412;BMP280;39307;52.870;13.660;2023-02-01T00:29:44;100401.28;;;3.91
53412;BMP280;39307;52.870;13.660;2023-02-01T00:32:10;100406.09;;;3.86
53412;BMP280;39307;52.870;13.660;2023-02-01T00:34:36;100411.88;;;3.80
53412;BMP280;39307;52.870;13.660;2023-02-01T00:37:02;100408.03;;;3.84
53412;BMP280;39307;52.870;13.660;2023-02-01T00:39:28;100399.06;;;3.78
53412;BMP280;39307;52.870;13.660;2023-02-01T00:41:55;100411.56;;;3.83
53412;BMP280;39307;52.870;13.660;2023-02-01T00:44:21;100409.03;;;3.91
53412;BMP280;39307;52.870;13.660;2023-02-01T00:46:47;100404.53;;;3.93
53412;BMP280;39307;52.870;13.660;2023-02-01T00:49:13;100403.00;;;3.82
53412;BMP280;39307;52.870;13.660;2023-02-01T00:51:39;100408.31;;;3.81
53412;BMP280;39307;52.870;13.660;2023-02-01T00:54:05;100412.88;;;3.70
53412;BMP280;39307;52.870;13.660;2023-02-01T00:56:31;100409.78;;;3.66
53412;BMP280;39307;52.870;13.660;2023-02-01T00:58:57;100414.81;;;3.68
53412;BMP280;39307;52.870;13.660;2023-02-01T01:01:26;100414.31;;;3.64
53412;BMP280;39307;52.870;13.660;2023-02-01T01:03:56;100399.22;;;3.77
53412;BMP280;39307;52.870;13.660;2023-02-01T01:06:30;100398.34;;;3.86
53412;BMP280;39307;52.870;13.660;2023-02-01T01:08:58;100399.16;;;3.86
53412;BMP280;39307;52.870;13.660;2023-02-01T01:11:27;100406.63;;;3.89
53412;BMP280;39307;52.870;13.660;2023-02-01T01:13:55;100406.81;;;3.78
53412;BMP280;39307;52.870;13.660;2023-02-01T01:16:23;100409.41;;;3.78
53412;BMP280;39307;52.870;13.660;2023-02-01T01:18:50;100395.06;;;4.01
53412;BMP280;39307;52.870;13.660;2023-02-01T01:21:17;100399.88;;;3.96
53412;BMP280;39307;52.870;13.660;2023-02-01T01:23:45;100410.69;;;3.92
53412;BMP280;39307;52.870;13.660;2023-02-01T01:26:20;100402.41;;;3.88
53412;BMP280;39307;52.870;13.660;2023-02-01T01:28:46;100398.47;;;3.84
53412;BMP280;39307;52.870;13.660;2023-02-01T01:31:14;100405.28;;;3.85
53412;BMP280;39307;52.870;13.660;2023-02-01T01:33:40;100388.03;;;3.94
53412;BMP280;39307;52.870;13.660;2023-02-01T01:36:08;100391.75;;;3.91
53412;BMP280;39307;52.870;13.660;2023-02-01T01:38:35;100402.91;;;3.92
53412;BMP280;39307;52.870;13.660;2023-02-01T01:41:01;100394.38;;;3.82
53412;BMP280;39307;52.870;13.660;2023-02-01T01:43:50;100387.69;;;3.89
53412;BMP280;39307;52.870;13.660;2023-02-01T01:46:25;100391.13;;;3.97
53412;BMP280;39307;52.870;13.660;2023-02-01T01:49:09;100372.94;;;4.06
53412;BMP280;39307;52.870;13.660;2023-02-01T01:51:48;100392.09;;;4.13
53412;BMP280;39307;52.870;13.660;2023-02-01T01:54:21;100381.53;;;3.90
53412;BMP280;39307;52.870;13.660;2023-02-01T01:56:52;100388.91;;;3.85
53412;BMP280;39307;52.870;13.660;2023-02-01T01:59:23;100379.09;;;3.88
53412;BMP280;39307;52.870;13.660;2023-02-01T02:01:51;100377.91;;;3.83
53412;BMP280;39307;52.870;13.660;2023-02-01T02:04:17;100378.22;;;3.80
53412;BMP280;39307;52.870;13.660;2023-02-01T02:07:18;100397.81;;;3.82
53412;BMP280;39307;52.870;13.660;2023-02-01T02:09:46;100383.16;;;3.91
53412;BMP280;39307;52.870;13.660;2023-02-01T02:12:12;100391.38;;;3.86
53412;BMP280;39307;52.870;13.660;2023-02-01T02:14:38;100392.78;;;3.81
53412;BMP280;39307;52.870;13.660;2023-02-01T02:17:24;100386.13;;;3.78
53412;BMP280;39307;52.870;13.660;2023-02-01T02:20:28;100387.38;;;3.74
53412;BMP280;39307;52.870;13.660;2023-02-01T02:23:03;100387.91;;;3.78
53412;BMP280;39307;52.870;13.660;2023-02-01T02:31:01;100370.53;;;3.71
53412;BMP280;39307;52.870;13.660;2023-02-01T02:39:16;100358.75;;;3.59
53412;BMP280;39307;52.870;13.660;2023-02-01T02:42:00;100361.69;;;3.64
53412;BMP280;39307;52.870;13.660;2023-02-01T02:44:54;100349.38;;;3.58
53412;BMP280;39307;52.870;13.660;2023-02-01T02:47:42;100351.59;;;3.53
53412;BMP280;39307;52.870;13.660;2023-02-01T02:53:01;100352.69;;;3.50
53412;BMP280;39307;52.870;13.660;2023-02-01T02:55:28;100352.16;;;3.47
53412;BMP280;39307;52.870;13.660;2023-02-01T02:57:57;100352.41;;;3.53
53412;BMP280;39307;52.870;13.660;2023-02-01T03:00:30;100359.72;;;3.58
53412;BMP280;39307;52.870;13.660;2023-02-01T03:02:58;100353.19;;;3.54
53412;BMP280;39307;52.870;13.660;2023-02-01T03:05:24;100358.81;;;3.67
53412;BMP280;39307;52.870;13.660;2023-02-01T03:08:11;100349.22;;;3.59
53412;BMP280;39307;52.870;13.660;2023-02-01T03:11:01;100351.59;;;3.53
53412;BMP280;39307;52.870;13.660;2023-02-01T03:13:49;100341.94;;;3.45
53412;BMP280;39307;52.870;13.660;2023-02-01T03:21:50;100334.94;;;3.55
53412;BMP280;39307;52.870;13.660;2023-02-01T03:27:14;100327.78;;;3.49
53412;BMP280;39307;52.870;13.660;2023-02-01T03:30:04;100329.69;;;3.47
53412;BMP280;39307;52.870;13.660;2023-02-01T03:32:33;100319.94;;;3.42
53412;BMP280;39307;52.870;13.660;2023-02-01T03:35:00;100333.25;;;3.46
53412;BMP280;39307;52.870;13.660;2023-02-01T03:37:27;100308.09;;;3.39
53412;BMP280;39307;52.870;13.660;2023-02-01T03:40:04;100309.06;;;3.55
53412;BMP280;39307;52.870;13.660;2023-02-01T03:42:48;100308.47;;;3.44
53412;BMP280;39307;52.870;13.660;2023-02-01T03:45:24;100311.66;;;3.38
53412;BMP280;39307;52.870;13.660;2023-02-01T03:47:55;100301.59;;;3.35
53412;BMP280;39307;52.870;13.660;2023-02-01T03:50:23;100301.16;;;3.40
53412;BMP280;39307;52.870;13.660;2023-02-01T03:53:01;100300.78;;;3.35
53412;BMP280;39307;52.870;13.660;2023-02-01T03:55:30;100305.00;;;3.36
53412;BMP280;39307;52.870;13.660;2023-02-01T03:58:09;100304.47;;;3.32
53412;BMP280;39307;52.870;13.660;2023-02-01T04:00:37;100304.47;;;3.32
53412;BMP280;39307;52.870;13.660;2023-02-01T04:03:05;100303.38;;;3.35
53412;BMP280;39307;52.870;13.660;2023-02-01T04:05:31;100299.38;;;3.40
53412;BMP280;39307;52.870;13.660;2023-02-01T04:07:58;100301.75;;;3.34
53412;BMP280;39307;52.870;13.660;2023-02-01T04:10:25;100290.13;;;3.38
53412;BMP280;39307;52.870;13.660;2023-02-01T04:12:51;100295.31;;;3.38
53412;BMP280;39307;52.870;13.660;2023-02-01T04:15:17;100301.06;;;3.32
53412;BMP280;39307;52.870;13.660;2023-02-01T04:17:44;100299.91;;;3.44
53412;BMP280;39307;52.870;13.660;2023-02-01T04:20:11;100303.13;;;3.45
53412;BMP280;39307;52.870;13.660;2023-02-01T04:22:37;100291.56;;;3.49
53412;BMP280;39307;52.870;13.660;2023-02-01T04:25:03;100285.78;;;3.55
53412;BMP280;39307;52.870;13.660;2023-02-01T04:27:29;100290.06;;;3.47
53412;BMP280;39307;52.870;13.660;2023-02-01T04:29:56;100288.38;;;3.55
53412;BMP280;39307;52.870;13.660;2023-02-01T04:32:22;100294.44;;;3.46
53412;BMP280;39307;52.870;13.660;2023-02-01T04:34:49;100289.91;;;3.48
53412;BMP280;39307;52.870;13.660;2023-02-01T04:37:15;100288.00;;;3.50
53412;BMP280;39307;52.870;13.660;2023-02-01T04:39:41;100286.81;;;3.62
53412;BMP280;39307;52.870;13.660;2023-02-01T04:42:07;100287.19;;;3.67
53412;BMP280;39307;52.870;13.660;2023-02-01T04:44:34;100283.09;;;3.65
53412;BMP280;39307;52.870;13.660;2023-02-01T04:47:00;100285.53;;;3.66
53412;BMP280;39307;52.870;13.660;2023-02-01T04:49:26;100288.13;;;3.66
53412;BMP280;39307;52.870;13.660;2023-02-01T04:51:52;100286.03;;;3.70
53412;BMP280;39307;52.870;13.660;2023-02-01T04:54:18;100284.63;;;3.75
53412;BMP280;39307;52.870;13.660;2023-02-01T04:56:45;100284.94;;;3.72
53412;BMP280;39307;52.870;13.660;2023-02-01T04:59:11;100282.41;;;3.80
53412;BMP280;39307;52.870;13.660;2023-02-01T05:01:38;100272.28;;;3.86
53412;BMP280;39307;52.870;13.660;2023-02-01T05:04:04;100277.38;;;3.78
53412;BMP280;39307;52.870;13.660;2023-02-01T05:06:30;100268.47;;;3.73
53412;BMP280;39307;52.870;13.660;2023-02-01T05:08:59;100268.91;;;3.69
53412;BMP280;39307;52.870;13.660;2023-02-01T05:11:25;100270.00;;;3.66
53412;BMP280;39307;52.870;13.660;2023-02-01T05:13:51;100261.19;;;3.76
53412;BMP280;39307;52.870;13.660;2023-02-01T05:16:17;100260.03;;;3.71
53412;BMP280;39307;52.870;13.660;2023-02-01T05:18:44;100259.47;;;3.85
53412;BMP280;39307;52.870;13.660;2023-02-01T05:21:10;100250.44;;;3.89
53412;BMP280;39307;52.870;13.660;2023-02-01T05:23:36;100261.63;;;3.89
53412;BMP280;39307;52.870;13.660;2023-02-01T05:26:02;100253.69;;;3.91
53412;BMP280;39307;52.870;13.660;2023-02-01T05:28:28;100257.91;;;3.92
53412;BMP280;39307;52.870;13.660;2023-02-01T05:30:55;100259.03;;;3.89
53412;BMP280;39307;52.870;13.660;2023-02-01T05:33:21;100263.91;;;3.92
53412;BMP280;39307;52.870;13.660;2023-02-01T05:35:47;100267.28;;;3.93
53412;BMP280;39307;52.870;13.660;2023-02-01T05:38:14;100260.63;;;3.90
53412;BMP280;39307;52.870;13.660;2023-02-01T05:40:40;100254.84;;;3.96
53412;BMP280;39307;52.870;13.660;2023-02-01T05:43:06;100252.47;;;4.02
53412;BMP280;39307;52.870;13.660;2023-02-01T05:45:32;100256.38;;;4.06
53412;BMP280;39307;52.870;13.660;2023-02-01T05:47:58;100249.81;;;4.20
53412;BMP280;39307;52.870;13.660;2023-02-01T05:50:25;100255.09;;;4.10
53412;BMP280;39307;52.870;13.660;2023-02-01T05:52:51;100255.56;;;4.06
53412;BMP280;39307;52.870;13.660;2023-02-01T05:55:17;100245.88;;;4.08
53412;BMP280;39307;52.870;13.660;2023-02-01T05:57:43;100238.56;;;4.03
53412;BMP280;39307;52.870;13.660;2023-02-01T06:00:10;100241.84;;;4.13
53412;BMP280;39307;52.870;13.660;2023-02-01T06:02:36;100240.13;;;4.22
53412;BMP280;39307;52.870;13.660;2023-02-01T06:05:02;100232.84;;;4.25
53412;BMP280;39307;52.870;13.660;2023-02-01T06:07:29;100228.41;;;4.10
53412;BMP280;39307;52.870;13.660;2023-02-01T06:09:55;100222.25;;;4.11
53412;BMP280;39307;52.870;13.660;2023-02-01T06:12:21;100231.50;;;4.21
53412;BMP280;39307;52.870;13.660;2023-02-01T06:14:47;100223.09;;;4.19
53412;BMP280;39307;52.870;13.660;2023-02-01T06:17:13;100219.16;;;4.48
53412;BMP280;39307;52.870;13.660;2023-02-01T06:19:40;100213.84;;;4.50
53412;BMP280;39307;52.870;13.660;2023-02-01T06:22:06;100218.81;;;4.35
53412;BMP280;39307;52.870;13.660;2023-02-01T06:24:32;100216.88;;;4.37
53412;BMP280;39307;52.870;13.660;2023-02-01T06:26:58;100224.59;;;4.30
53412;BMP280;39307;52.870;13.660;2023-02-01T06:29:24;100249.69;;;4.29
53412;BMP280;39307;52.870;13.660;2023-02-01T06:31:51;100219.91;;;4.33
53412;BMP280;39307;52.870;13.660;2023-02-01T06:34:17;100211.97;;;4.27
53412;BMP280;39307;52.870;13.660;2023-02-01T06:36:43;100212.13;;;4.25
53412;BMP280;39307;52.870;13.660;2023-02-01T06:39:09;100219.91;;;4.25
53412;BMP280;39307;52.870;13.660;2023-02-01T06:41:36;100222.59;;;4.16
53412;BMP280;39307;52.870;13.660;2023-02-01T06:44:02;100220.13;;;4.06
53412;BMP280;39307;52.870;13.660;2023-02-01T06:46:28;100214.94;;;4.06
53412;BMP280;39307;52.870;13.660;2023-02-01T06:48:54;100221.69;;;4.00
53412;BMP280;39307;52.870;13.660;2023-02-01T06:51:25;100225.00;;;4.09
53412;BMP280;39307;52.870;13.660;2023-02-01T06:53:52;100224.16;;;4.09
53412;BMP280;39307;52.870;13.660;2023-02-01T06:56:18;100219.47;;;4.04
53412;BMP280;39307;52.870;13.660;2023-02-01T06:58:44;100212.66;;;4.03
53412;BMP280;39307;52.870;13.660;2023-02-01T07:01:11;100216.41;;;4.09
53412;BMP280;39307;52.870;13.660;2023-02-01T07:03:38;100218.03;;;4.10
53412;BMP280;39307;52.870;13.660;2023-02-01T07:06:04;100218.69;;;4.12
53412;BMP280;39307;52.870;13.660;2023-02-01T07:08:33;100217.44;;;4.16
53412;BMP280;39307;52.870;13.660;2023-02-01T07:11:06;100218.53;;;4.13
53412;BMP280;39307;52.870;13.660;2023-02-01T07:13:33;100214.47;;;4.11
53412;BMP280;39307;52.870;13.660;2023-02-01T07:16:04;100210.47;;;4.16
53412;BMP280;39307;52.870;13.660;2023-02-01T07:18:31;100216.56;;;4.07
53412;BMP280;39307;52.870;13.660;2023-02-01T07:20:58;100215.25;;;4.03
53412;BMP280;39307;52.870;13.660;2023-02-01T07:23:24;100206.03;;;4.09
53412;BMP280;39307;52.870;13.660;2023-02-01T07:25:59;100202.94;;;4.05
53412;BMP280;39307;52.870;13.660;2023-02-01T07:28:29;100196.19;;;4.12
53412;BMP280;39307;52.870;13.660;2023-02-01T07:31:01;100212.69;;;4.11
53412;BMP280;39307;52.870;13.660;2023-02-01T07:33:28;100210.38;;;4.01
53412;BMP280;39307;52.870;13.660;2023-02-01T07:35:55;100204.91;;;4.03
53412;BMP280;39307;52.870;13.660;2023-02-01T07:38:21;100191.47;;;4.08
53412;BMP280;39307;52.870;13.660;2023-02-01T07:40:47;100187.78;;;4.18
53412;BMP280;39307;52.870;13.660;2023-02-01T07:43:13;100203.63;;;4.07
53412;BMP280;39307;52.870;13.660;2023-02-01T07:45:40;100198.56;;;3.98
53412;BMP280;39307;52.870;13.660;2023-02-01T07:48:07;100191.78;;;4.05
53412;BMP280;39307;52.870;13.660;2023-02-01T07:50:33;100175.97;;;4.16
53412;BMP280;39307;52.870;13.660;2023-02-01T07:53:00;100181.59;;;4.03
53412;BMP280;39307;52.870;13.660;2023-02-01T07:55:27;100173.50;;;4.06
53412;BMP280;39307;52.870;13.660;2023-02-01T07:57:56;100164.63;;;4.17
53412;BMP280;39307;52.870;13.660;2023-02-01T08:00:23;100168.78;;;4.02
53412;BMP280;39307;52.870;13.660;2023-02-01T08:02:49;100170.78;;;4.16
53412;BMP280;39307;52.870;13.660;2023-02-01T08:05:15;100163.78;;;4.08
53412;BMP280;39307;52.870;13.660;2023-02-01T08:07:41;100161.88;;;4.18
53412;BMP280;39307;52.870;13.660;2023-02-01T08:10:08;100162.53;;;4.20
53412;BMP280;39307;52.870;13.660;2023-02-01T08:12:34;100162.72;;;4.19
53412;BMP280;39307;52.870;13.660;2023-02-01T08:15:00;100168.41;;;4.22
53412;BMP280;39307;52.870;13.660;2023-02-01T08:17:27;100170.06;;;4.31
53412;BMP280;39307;52.870;13.660;2023-02-01T08:19:53;100175.69;;;4.27
53412;BMP280;39307;52.870;13.660;2023-02-01T08:22:19;100182.59;;;4.18
53412;BMP280;39307;52.870;13.660;2023-02-01T08:24:48;100176.16;;;4.22
53412;BMP280;39307;52.870;13.660;2023-02-01T08:27:15;100191.81;;;4.13
53412;BMP280;39307;52.870;13.660;2023-02-01T08:29:41;100181.06;;;4.33
53412;BMP280;39307;52.870;13.660;2023-02-01T08:32:07;100183.94;;;4.22
53412;BMP280;39307;52.870;13.660;2023-02-01T08:34:33;100181.16;;;4.16
53412;BMP280;39307;52.870;13.660;2023-02-01T08:37:00;100180.88;;;4.27
53412;BMP280;39307;52.870;13.660;2023-02-01T08:39:26;100181.66;;;4.19
53412;BMP280;39307;52.870;13.660;2023-02-01T08:41:52;100185.28;;;4.34
53412;BMP280;39307;52.870;13.660;2023-02-01T08:44:19;100175.22;;;4.31
53412;BMP280;39307;52.870;13.660;2023-02-01T08:46:45;100176.19;;;4.30
53412;BMP280;39307;52.870;13.660;2023-02-01T08:49:11;100179.41;;;4.24
53412;BMP280;39307;52.870;13.660;2023-02-01T08:51:37;100180.75;;;4.36
53412;BMP280;39307;52.870;13.660;2023-02-01T08:54:03;100185.44;;;4.32
53412;BMP280;39307;52.870;13.660;2023-02-01T08:56:29;100189.50;;;4.35
53412;BMP280;39307;52.870;13.660;2023-02-01T08:58:55;100201.56;;;4.19
53412;BMP280;39307;52.870;13.660;2023-02-01T09:01:22;100195.47;;;4.28
53412;BMP280;39307;52.870;13.660;2023-02-01T09:03:48;100195.47;;;4.35
53412;BMP280;39307;52.870;13.660;2023-02-01T09:06:14;100192.88;;;4.28
53412;BMP280;39307;52.870;13.660;2023-02-01T09:08:41;100193.00;;;4.26
53412;BMP280;39307;52.870;13.660;2023-02-01T09:11:13;100209.34;;;4.19
53412;BMP280;39307;52.870;13.660;2023-02-01T09:13:40;100203.56;;;4.25
53412;BMP280;39307;52.870;13.660;2023-02-01T09:16:06;100210.16;;;4.27
53412;BMP280;39307;52.870;13.660;2023-02-01T09:18:32;100201.94;;;4.31
53412;BMP280;39307;52.870;13.660;2023-02-01T09:20:58;100215.22;;;4.29
53412;BMP280;39307;52.870;13.660;2023-02-01T09:23:25;100206.63;;;4.28
53412;BMP280;39307;52.870;13.660;2023-02-01T09:25:51;100207.88;;;4.24
53412;BMP280;39307;52.870;13.660;2023-02-01T09:28:18;100227.47;;;4.19
53412;BMP280;39307;52.870;13.660;2023-02-01T09:30:44;100222.81;;;4.30
53412;BMP280;39307;52.870;13.660;2023-02-01T09:33:11;100237.53;;;4.22
53412;BMP280;39307;52.870;13.660;2023-02-01T09:35:37;100227.00;;;4.23
53412;BMP280;39307;52.870;13.660;2023-02-01T09:38:03;100235.59;;;4.24
53412;BMP280;39307;52.870;13.660;2023-02-01T09:40:29;100238.84;;;4.26
53412;BMP280;39307;52.870;13.660;2023-02-01T09:43:08;100245.63;;;4.19
53412;BMP280;39307;52.870;13.660;2023-02-01T09:46:04;100252.78;;;4.32
53412;BMP280;39307;52.870;13.660;2023-02-01T09:48:39;100249.56;;;4.31
53412;BMP280;39307;52.870;13.660;2023-02-01T09:51:33;100261.84;;;4.29
53412;BMP280;39307;52.870;13.660;2023-02-01T09:54:22;100257.91;;;4.17
53412;BMP280;39307;52.870;13.660;2023-02-01T09:57:08;100251.91;;;4.16
53412;BMP280;39307;52.870;13.660;2023-02-01T09:59:41;100264.06;;;4.16
53412;BMP280;39307;52.870;13.660;2023-02-01T10:02:24;100262.47;;;4.23
53412;BMP280;39307;52.870;13.660;2023-02-01T10:04:54;100264.88;;;4.24
53412;BMP280;39307;52.870;13.660;2023-02-01T10:10:34;100256.31;;;4.24
53412;BMP280;39307;52.870;13.660;2023-02-01T10:19:31;100260.06;;;4.29
53412;BMP280;39307;52.870;13.660;2023-02-01T10:22:13;100264.88;;;4.24
53412;BMP280;39307;52.870;13.660;2023-02-01T10:24:58;100267.72;;;4.38
53412;BMP280;39307;52.870;13.660;2023-02-01T10:27:38;100263.66;;;4.36
53412;BMP280;39307;52.870;13.660;2023-02-01T10:30:21;100260.75;;;4.31
53412;BMP280;39307;52.870;13.660;2023-02-01T10:32:56;100250.81;;;4.27
53412;BMP280;39307;52.870;13.660;2023-02-01T10:35:28;100253.91;;;4.30
53412;BMP280;39307;52.870;13.660;2023-02-01T10:37:58;100244.25;;;4.40
53412;BMP280;39307;52.870;13.660;2023-02-01T10:40:27;100232.31;;;4.55
53412;BMP280;39307;52.870;13.660;2023-02-01T10:42:56;100243.66;;;4.54
53412;BMP280;39307;52.870;13.660;2023-02-01T10:45:27;100228.47;;;4.59
53412;BMP280;39307;52.870;13.660;2023-02-01T10:47:55;100234.63;;;4.65
53412;BMP280;39307;52.870;13.660;2023-02-01T10:53:29;100230.78;;;4.77
53412;BMP280;39307;52.870;13.660;2023-02-01T10:55:56;100223.66;;;4.87
53412;BMP280;39307;52.870;13.660;2023-02-01T10:58:30;100223.06;;;5.01
53412;BMP280;39307;52.870;13.660;2023-02-01T11:01:01;100226.97;;;5.05
53412;BMP280;39307;52.870;13.660;2023-02-01T11:05:59;100210.75;;;5.11
53412;BMP280;39307;52.870;13.660;2023-02-01T11:08:26;100212.19;;;5.05
53412;BMP280;39307;52.870;13.660;2023-02-01T11:11:01;100215.78;;;5.20
53412;BMP280;39307;52.870;13.660;2023-02-01T11:13:32;100213.03;;;5.29
53412;BMP280;39307;52.870;13.660;2023-02-01T11:16:03;100201.50;;;5.40
53412;BMP280;39307;52.870;13.660;2023-02-01T11:18:31;100206.72;;;5.47
53412;BMP280;39307;52.870;13.660;2023-02-01T11:21:02;100203.28;;;5.63
53412;BMP280;39307;52.870;13.660;2023-02-01T11:23:30;100210.94;;;5.64
53412;BMP280;39307;52.870;13.660;2023-02-01T11:25:59;100199.91;;;5.62
53412;BMP280;39307;52.870;13.660;2023-02-01T11:28:33;100200.38;;;5.66
53412;BMP280;39307;52.870;13.660;2023-02-01T11:31:04;100193.25;;;5.68
53412;BMP280;39307;52.870;13.660;2023-02-01T11:33:33;100191.28;;;5.70
53412;BMP280;39307;52.870;13.660;2023-02-01T11:36:15;100193.91;;;5.62
53412;BMP280;39307;52.870;13.660;2023-02-01T11:39:10;100193.72;;;5.63
53412;BMP280;39307;52.870;13.660;2023-02-01T11:41:33;100185.28;;;5.53
53412;BMP280;39307;52.870;13.660;2023-02-01T11:44:01;100187.75;;;5.55
53412;BMP280;39307;52.870;13.660;2023-02-01T11:46:34;100189.50;;;5.54
53412;BMP280;39307;52.870;13.660;2023-02-01T11:49:25;100186.09;;;5.62
53412;BMP280;39307;52.870;13.660;2023-02-01T11:52:04;100175.38;;;5.65
53412;BMP280;39307;52.870;13.660;2023-02-01T11:55:07;100174.91;;;5.53
53412;BMP280;39307;52.870;13.660;2023-02-01T12:06:34;100171.84;;;5.50
53412;BMP280;39307;52.870;13.660;2023-02-01T12:11:46;100162.91;;;5.45
53412;BMP280;39307;52.870;13.660;2023-02-01T12:14:25;100170.88;;;5.43
53412;BMP280;39307;52.870;13.660;2023-02-01T12:25:18;100185.13;;;5.47
53412;BMP280;39307;52.870;13.660;2023-02-01T12:28:10;100196.50;;;5.22
53412;BMP280;39307;52.870;13.660;2023-02-01T12:36:36;100186.91;;;4.99
53412;BMP280;39307;52.870;13.660;2023-02-01T12:42:19;100167.47;;;5.11
53412;BMP280;39307;52.870;13.660;2023-02-01T12:44:54;100155.31;;;5.04
53412;BMP280;39307;52.870;13.660;2023-02-01T12:47:44;100148.16;;;5.14
53412;BMP280;39307;52.870;13.660;2023-02-01T12:50:35;100144.59;;;5.07
53412;BMP280;39307;52.870;13.660;2023-02-01T12:53:21;100150.94;;;5.04
53412;BMP280;39307;52.870;13.660;2023-02-01T12:55:57;100158.38;;;5.07
53412;BMP280;39307;52.870;13.660;2023-02-01T12:58:48;100140.72;;;5.11
53412;BMP280;39307;52.870;13.660;2023-02-01T13:01:21;100132.59;;;5.06
53412;BMP280;39307;52.870;13.660;2023-02-01T13:06:38;100150.13;;;5.04
53412;BMP280;39307;52.870;13.660;2023-02-01T13:09:21;100153.00;;;4.93
53412;BMP280;39307;52.870;13.660;2023-02-01T13:11:52;100154.47;;;4.88
53412;BMP280;39307;52.870;13.660;2023-02-01T13:14:43;100155.63;;;4.85
53412;BMP280;39307;52.870;13.660;2023-02-01T13:17:18;100149.75;;;4.91
53412;BMP280;39307;52.870;13.660;2023-02-01T13:19:50;100158.69;;;4.96
53412;BMP280;39307;52.870;13.660;2023-02-01T13:22:29;100148.47;;;4.87
53412;BMP280;39307;52.870;13.660;2023-02-01T13:25:00;100150.06;;;4.88
53412;BMP280;39307;52.870;13.660;2023-02-01T13:27:28;100148.47;;;4.87
53412;BMP280;39307;52.870;13.660;2023-02-01T13:30:03;100129.34;;;4.96
53412;BMP280;39307;52.870;13.660;2023-02-01T13:32:45;100133.56;;;4.89
53412;BMP280;39307;52.870;13.660;2023-02-01T13:41:35;100109.88;;;4.84
53412;BMP280;39307;52.870;13.660;2023-02-01T13:44:12;100119.63;;;4.82
53412;BMP280;39307;52.870;13.660;2023-02-01T13:46:43;100121.38;;;4.82
53412;BMP280;39307;52.870;13.660;2023-02-01T13:49:24;100108.94;;;4.85
53412;BMP280;39307;52.870;13.660;2023-02-01T13:51:53;100108.41;;;4.82
53412;BMP280;39307;52.870;13.660;2023-02-01T13:54:39;100109.91;;;4.76
53412;BMP280;39307;52.870;13.660;2023-02-01T13:57:33;100106.78;;;4.73
53412;BMP280;39307;52.870;13.660;2023-02-01T14:00:08;100106.97;;;4.71
53412;BMP280;39307;52.870;13.660;2023-02-01T14:02:47;100096.09;;;4.76
53412;BMP280;39307;52.870;13.660;2023-02-01T14:13:30;100075.84;;;4.71
53412;BMP280;39307;52.870;13.660;2023-02-01T14:21:25;100059.97;;;4.66
53412;BMP280;39307;52.870;13.660;2023-02-01T14:29:24;100036.63;;;4.66
53412;BMP280;39307;52.870;13.660;2023-02-01T14:34:48;100030.47;;;4.59
53412;BMP280;39307;52.870;13.660;2023-02-01T14:55:53;100057.72;;;4.71
53412;BMP280;39307;52.870;13.660;2023-02-01T14:58:40;100052.03;;;4.60
53412;BMP280;39307;52.870;13.660;2023-02-01T15:01:38;100045.22;;;4.51
53412;BMP280;39307;52.870;13.660;2023-02-01T15:04:05;100049.44;;;4.52
53412;BMP280;39307;52.870;13.660;2023-02-01T15:06:55;100045.03;;;4.45
53412;BMP280;39307;52.870;13.660;2023-02-01T15:12:00;100040.81;;;4.28
53412;BMP280;39307;52.870;13.660;2023-02-01T15:14:34;100034.53;;;4.31
53412;BMP280;39307;52.870;13.660;2023-02-01T15:17:01;100038.84;;;4.30
53412;BMP280;39307;52.870;13.660;2023-02-01T15:19:29;100040.16;;;4.26
53412;BMP280;39307;52.870;13.660;2023-02-01T15:21:57;100031.09;;;4.30
53412;BMP280;39307;52.870;13.660;2023-02-01T15:24:25;100032.06;;;4.29
53412;BMP280;39307;52.870;13.660;2023-02-01T15:26:53;100025.28;;;4.28
53412;BMP280;39307;52.870;13.660;2023-02-01T15:29:23;100024.28;;;4.29
53412;BMP280;39307;52.870;13.660;2023-02-01T15:31:51;100024.16;;;4.31
53412;BMP280;39307;52.870;13.660;2023-02-01T15:34:18;100030.44;;;4.36
53412;BMP280;39307;52.870;13.660;2023-02-01T15:36:45;100025.28;;;4.44
53412;BMP280;39307;52.870;13.660;2023-02-01T15:41:41;100021.72;;;4.45
53412;BMP280;39307;52.870;13.660;2023-02-01T15:44:18;100015.25;;;4.41
53412;BMP280;39307;52.870;13.660;2023-02-01T15:46:49;100015.72;;;4.44
53412;BMP280;39307;52.870;13.660;2023-02-01T15:51:51;100011.50;;;4.51
53412;BMP280;39307;52.870;13.660;2023-02-01T15:54:25;100014.78;;;4.61
53412;BMP280;39307;52.870;13.660;2023-02-01T15:56:54;100001.31;;;4.58
53412;BMP280;39307;52.870;13.660;2023-02-01T15:59:31;99996.00;;;4.67
53412;BMP280;39307;52.870;13.660;2023-02-01T16:01:58;100006.81;;;4.55
53412;BMP280;39307;52.870;13.660;2023-02-01T16:04:27;100000.69;;;4.56
53412;BMP280;39307;52.870;13.660;2023-02-01T16:06:58;99995.16;;;4.59
53412;BMP280;39307;52.870;13.660;2023-02-01T16:09:52;100002.78;;;4.60
53412;BMP280;39307;52.870;13.660;2023-02-01T16:15:05;100011.53;;;4.59
53412;BMP280;39307;52.870;13.660;2023-02-01T16:17:31;100011.84;;;4.72
53412;BMP280;39307;52.870;13.660;2023-02-01T16:19:58;100008.13;;;4.59
53412;BMP280;39307;52.870;13.660;2023-02-01T16:22:24;100009.59;;;4.53